Terminal Aerodrome Forecast
Issued by NWS

Home | Current Version | Previous Version | Text Only | Print | Product List | Glossary On
Versions: 1 2 3 4 5 6 7 8 9 10 11 12 13 14 15 16
000
FTUS43 KIND 291128
TAFBMG
TAF
KBMG 291128Z 2912/3012 VRB03KT 5SM BR BKN025 OVC040
     FM291600 04005KT P6SM OVC025
     FM291700 03004KT P6SM VCSH BKN025
     FM291800 03004KT P6SM VCSH BKN035
      TEMPO 3001/3005 4SM SHRA BR OVC010
     FM300900 35004KT P6SM OVC003
     FM301000 01004KT 3SM -SHRA OVC003
      AMD LTD TO CLD VIS AND WIND TIL 291300=

USA.gov is the U.S. government's official web portal to all federal, state and local government web resources and services.